sensor_id;sensor_type;location;lat;lon;timestamp;P1;durP1;ratioP1;P2;durP2;ratioP2
56917;SDS011;42805;52.818;17.224;2023-12-14T00:08:12;43.10;;;20.70;;
56917;SDS011;42805;52.818;17.224;2023-12-14T00:18:15;34.70;;;18.00;;
56917;SDS011;42805;52.818;17.224;2023-12-14T00:28:19;35.50;;;18.40;;
56917;SDS011;42805;52.818;17.224;2023-12-14T00:38:23;34.10;;;18.60;;
56917;SDS011;42805;52.818;17.224;2023-12-14T00:48:27;38.40;;;17.70;;
56917;SDS011;42805;52.818;17.224;2023-12-14T00:58:32;34.30;;;17.60;;
56917;SDS011;42805;52.818;17.224;2023-12-14T01:08:36;27.60;;;15.10;;
56917;SDS011;42805;52.818;17.224;2023-12-14T01:18:40;29.00;;;15.80;;
56917;SDS011;42805;52.818;17.224;2023-12-14T01:28:43;27.50;;;15.50;;
56917;SDS011;42805;52.818;17.224;2023-12-14T01:38:47;26.20;;;14.90;;
56917;SDS011;42805;52.818;17.224;2023-12-14T01:48:51;24.30;;;14.00;;
56917;SDS011;42805;52.818;17.224;2023-12-14T01:58:56;22.80;;;14.20;;
56917;SDS011;42805;52.818;17.224;2023-12-14T02:09:00;23.90;;;13.50;;
56917;SDS011;42805;52.818;17.224;2023-12-14T02:19:04;23.60;;;13.90;;
56917;SDS011;42805;52.818;17.224;2023-12-14T02:29:08;27.40;;;15.10;;
56917;SDS011;42805;52.818;17.224;2023-12-14T02:39:12;24.70;;;15.00;;
56917;SDS011;42805;52.818;17.224;2023-12-14T02:49:15;25.70;;;15.00;;
56917;SDS011;42805;52.818;17.224;2023-12-14T02:59:19;23.30;;;13.90;;
56917;SDS011;42805;52.818;17.224;2023-12-14T03:09:23;23.30;;;14.70;;
56917;SDS011;42805;52.818;17.224;2023-12-14T03:19:26;26.00;;;14.80;;
56917;SDS011;42805;52.818;17.224;2023-12-14T03:29:30;24.10;;;14.40;;
56917;SDS011;42805;52.818;17.224;2023-12-14T03:39:34;22.60;;;12.90;;
56917;SDS011;42805;52.818;17.224;2023-12-14T03:49:38;25.20;;;14.90;;
56917;SDS011;42805;52.818;17.224;2023-12-14T03:59:41;22.30;;;13.10;;
56917;SDS011;42805;52.818;17.224;2023-12-14T04:09:45;24.10;;;13.90;;
56917;SDS011;42805;52.818;17.224;2023-12-14T04:19:49;20.90;;;12.50;;
56917;SDS011;42805;52.818;17.224;2023-12-14T04:29:53;24.00;;;12.80;;
56917;SDS011;42805;52.818;17.224;2023-12-14T04:39:59;26.80;;;13.60;;
56917;SDS011;42805;52.818;17.224;2023-12-14T04:50:04;26.50;;;14.10;;
56917;SDS011;42805;52.818;17.224;2023-12-14T05:00:08;24.10;;;12.50;;
56917;SDS011;42805;52.818;17.224;2023-12-14T05:10:12;20.60;;;12.00;;
56917;SDS011;42805;52.818;17.224;2023-12-14T05:20:15;23.20;;;12.50;;
56917;SDS011;42805;52.818;17.224;2023-12-14T05:30:19;22.00;;;12.20;;
56917;SDS011;42805;52.818;17.224;2023-12-14T05:40:23;19.30;;;11.70;;
56917;SDS011;42805;52.818;17.224;2023-12-14T05:50:26;20.00;;;12.10;;
56917;SDS011;42805;52.818;17.224;2023-12-14T06:00:31;19.90;;;11.90;;
56917;SDS011;42805;52.818;17.224;2023-12-14T06:10:37;19.00;;;11.40;;
56917;SDS011;42805;52.818;17.224;2023-12-14T06:20:40;19.40;;;12.60;;
56917;SDS011;42805;52.818;17.224;2023-12-14T06:30:44;17.90;;;10.80;;
56917;SDS011;42805;52.818;17.224;2023-12-14T06:40:48;18.40;;;11.30;;
56917;SDS011;42805;52.818;17.224;2023-12-14T06:50:52;17.10;;;12.20;;
56917;SDS011;42805;52.818;17.224;2023-12-14T07:00:58;19.10;;;12.40;;
56917;SDS011;42805;52.818;17.224;2023-12-14T07:11:02;19.90;;;12.70;;
56917;SDS011;42805;52.818;17.224;2023-12-14T07:21:06;18.30;;;11.20;;
56917;SDS011;42805;52.818;17.224;2023-12-14T07:31:11;15.90;;;10.30;;
56917;SDS011;42805;52.818;17.224;2023-12-14T07:41:14;14.90;;;10.00;;
56917;SDS011;42805;52.818;17.224;2023-12-14T07:51:18;14.10;;;9.60;;
56917;SDS011;42805;52.818;17.224;2023-12-14T08:01:22;16.20;;;9.50;;
56917;SDS011;42805;52.818;17.224;2023-12-14T08:11:27;14.10;;;9.30;;
56917;SDS011;42805;52.818;17.224;2023-12-14T08:21:30;17.70;;;11.50;;
56917;SDS011;42805;52.818;17.224;2023-12-14T08:31:34;21.20;;;12.50;;
56917;SDS011;42805;52.818;17.224;2023-12-14T08:41:38;19.00;;;12.30;;
56917;SDS011;42805;52.818;17.224;2023-12-14T08:51:42;17.20;;;11.50;;
56917;SDS011;42805;52.818;17.224;2023-12-14T09:01:46;17.60;;;11.50;;
56917;SDS011;42805;52.818;17.224;2023-12-14T09:11:52;16.60;;;10.90;;
56917;SDS011;42805;52.818;17.224;2023-12-14T09:21:57;13.70;;;9.50;;
56917;SDS011;42805;52.818;17.224;2023-12-14T09:32:02;15.20;;;9.00;;
56917;SDS011;42805;52.818;17.224;2023-12-14T09:42:10;13.20;;;8.90;;
56917;SDS011;42805;52.818;17.224;2023-12-14T09:52:14;15.30;;;10.00;;
56917;SDS011;42805;52.818;17.224;2023-12-14T10:02:25;15.60;;;10.20;;
56917;SDS011;42805;52.818;17.224;2023-12-14T10:12:30;15.10;;;9.90;;
56917;SDS011;42805;52.818;17.224;2023-12-14T10:22:34;16.60;;;11.00;;
56917;SDS011;42805;52.818;17.224;2023-12-14T10:32:41;15.20;;;9.60;;
56917;SDS011;42805;52.818;17.224;2023-12-14T10:42:48;15.10;;;10.30;;
56917;SDS011;42805;52.818;17.224;2023-12-14T10:52:53;16.60;;;10.30;;
56917;SDS011;42805;52.818;17.224;2023-12-14T11:02:58;15.10;;;9.90;;
56917;SDS011;42805;52.818;17.224;2023-12-14T11:13:09;14.10;;;9.30;;
56917;SDS011;42805;52.818;17.224;2023-12-14T11:23:16;14.20;;;9.30;;
56917;SDS011;42805;52.818;17.224;2023-12-14T11:33:29;12.40;;;7.90;;
56917;SDS011;42805;52.818;17.224;2023-12-14T11:43:40;10.60;;;6.90;;
56917;SDS011;42805;52.818;17.224;2023-12-14T11:53:45;10.80;;;7.10;;
56917;SDS011;42805;52.818;17.224;2023-12-14T12:03:51;10.70;;;6.90;;
56917;SDS011;42805;52.818;17.224;2023-12-14T12:13:55;10.60;;;7.10;;
56917;SDS011;42805;52.818;17.224;2023-12-14T12:24:01;9.60;;;6.00;;
56917;SDS011;42805;52.818;17.224;2023-12-14T12:34:11;8.50;;;5.70;;
56917;SDS011;42805;52.818;17.224;2023-12-14T12:44:15;9.00;;;5.60;;
56917;SDS011;42805;52.818;17.224;2023-12-14T12:54:20;14.70;;;10.10;;
56917;SDS011;42805;52.818;17.224;2023-12-14T13:04:24;10.70;;;7.40;;
56917;SDS011;42805;52.818;17.224;2023-12-14T13:14:29;20.90;;;13.20;;
56917;SDS011;42805;52.818;17.224;2023-12-14T13:24:34;12.60;;;8.60;;
56917;SDS011;42805;52.818;17.224;2023-12-14T13:34:38;11.10;;;6.40;;
56917;SDS011;42805;52.818;17.224;2023-12-14T13:44:42;10.80;;;6.90;;
56917;SDS011;42805;52.818;17.224;2023-12-14T13:54:46;11.40;;;7.00;;
56917;SDS011;42805;52.818;17.224;2023-12-14T14:04:50;10.90;;;6.30;;
56917;SDS011;42805;52.818;17.224;2023-12-14T14:14:55;9.90;;;6.00;;
56917;SDS011;42805;52.818;17.224;2023-12-14T14:25:00;10.80;;;6.10;;
56917;SDS011;42805;52.818;17.224;2023-12-14T14:35:04;13.70;;;7.50;;
56917;SDS011;42805;52.818;17.224;2023-12-14T14:45:10;11.70;;;6.20;;
56917;SDS011;42805;52.818;17.224;2023-12-14T14:55:15;15.40;;;8.30;;
56917;SDS011;42805;52.818;17.224;2023-12-14T15:52:53;13.30;;;7.60;;
56917;SDS011;42805;52.818;17.224;2023-12-14T16:02:57;10.60;;;6.80;;
56917;SDS011;42805;52.818;17.224;2023-12-14T16:13:01;13.00;;;7.00;;
56917;SDS011;42805;52.818;17.224;2023-12-14T16:23:05;10.90;;;6.50;;
56917;SDS011;42805;52.818;17.224;2023-12-14T16:33:09;10.80;;;6.70;;
56917;SDS011;42805;52.818;17.224;2023-12-14T16:43:13;10.40;;;6.10;;
56917;SDS011;42805;52.818;17.224;2023-12-14T16:53:25;10.60;;;6.00;;
56917;SDS011;42805;52.818;17.224;2023-12-14T17:03:33;11.40;;;6.60;;
56917;SDS011;42805;52.818;17.224;2023-12-14T17:13:39;12.30;;;6.70;;
56917;SDS011;42805;52.818;17.224;2023-12-14T17:23:44;14.80;;;7.10;;
56917;SDS011;42805;52.818;17.224;2023-12-14T17:33:48;18.10;;;8.70;;
56917;SDS011;42805;52.818;17.224;2023-12-14T17:43:56;22.00;;;11.80;;
56917;SDS011;42805;52.818;17.224;2023-12-14T17:54:00;26.40;;;13.80;;
56917;SDS011;42805;52.818;17.224;2023-12-14T18:04:05;24.40;;;12.30;;
56917;SDS011;42805;52.818;17.224;2023-12-14T18:14:11;27.30;;;13.50;;
56917;SDS011;42805;52.818;17.224;2023-12-14T18:24:16;24.00;;;13.40;;
56917;SDS011;42805;52.818;17.224;2023-12-14T18:34:27;25.30;;;13.70;;
56917;SDS011;42805;52.818;17.224;2023-12-14T18:44:36;22.50;;;12.70;;
56917;SDS011;42805;52.818;17.224;2023-12-14T18:54:44;25.60;;;11.70;;
56917;SDS011;42805;52.818;17.224;2023-12-14T19:06:18;30.10;;;14.70;;
56917;SDS011;42805;52.818;17.224;2023-12-14T19:16:25;26.80;;;14.40;;
56917;SDS011;42805;52.818;17.224;2023-12-14T19:26:36;24.00;;;13.80;;
56917;SDS011;42805;52.818;17.224;2023-12-14T19:36:49;24.20;;;13.90;;
56917;SDS011;42805;52.818;17.224;2023-12-14T19:46:52;23.80;;;13.50;;
56917;SDS011;42805;52.818;17.224;2023-12-14T19:56:58;21.50;;;13.10;;
56917;SDS011;42805;52.818;17.224;2023-12-14T20:07:02;23.90;;;14.10;;
56917;SDS011;42805;52.818;17.224;2023-12-14T20:17:09;22.40;;;12.90;;
56917;SDS011;42805;52.818;17.224;2023-12-14T20:27:13;22.80;;;13.10;;
56917;SDS011;42805;52.818;17.224;2023-12-14T20:37:18;21.30;;;12.70;;
56917;SDS011;42805;52.818;17.224;2023-12-14T20:47:23;25.80;;;14.40;;
56917;SDS011;42805;52.818;17.224;2023-12-14T20:57:45;20.50;;;11.90;;
56917;SDS011;42805;52.818;17.224;2023-12-14T21:07:50;23.20;;;13.90;;
56917;SDS011;42805;52.818;17.224;2023-12-14T21:17:58;22.70;;;13.90;;
56917;SDS011;42805;52.818;17.224;2023-12-14T21:28:06;22.50;;;13.40;;
56917;SDS011;42805;52.818;17.224;2023-12-14T21:38:41;21.80;;;13.50;;
56917;SDS011;42805;52.818;17.224;2023-12-14T22:01:04;75.70;;;34.80;;
56917;SDS011;42805;52.818;17.224;2023-12-14T22:11:23;104.10;;;47.00;;
56917;SDS011;42805;52.818;17.224;2023-12-14T22:21:30;112.00;;;50.50;;
56917;SDS011;42805;52.818;17.224;2023-12-14T22:31:44;72.50;;;35.00;;
56917;SDS011;42805;52.818;17.224;2023-12-14T22:41:48;36.70;;;19.90;;
56917;SDS011;42805;52.818;17.224;2023-12-14T22:51:57;28.50;;;16.40;;
56917;SDS011;42805;52.818;17.224;2023-12-14T23:02:01;27.10;;;15.60;;
56917;SDS011;42805;52.818;17.224;2023-12-14T23:12:09;25.90;;;15.70;;
56917;SDS011;42805;52.818;17.224;2023-12-14T23:22:14;28.20;;;17.60;;
56917;SDS011;42805;52.818;17.224;2023-12-14T23:32:19;32.00;;;20.00;;
56917;SDS011;42805;52.818;17.224;2023-12-14T23:42:24;55.70;;;29.80;;
56917;SDS011;42805;52.818;17.224;2023-12-14T23:52:28;55.60;;;27.90;;
